createdAt,value
2017-05-09T00:00:57.032Z,10.40
2017-05-09T00:03:23.457Z,10.40
2017-05-09T00:05:50.284Z,10.20
2017-05-09T00:08:17.057Z,10.20
2017-05-09T00:10:43.896Z,10.20
2017-05-09T00:13:11.056Z,10.30
2017-05-09T00:15:37.890Z,10.20
2017-05-09T00:18:04.691Z,10.20
2017-05-09T00:20:31.853Z,10.20
2017-05-09T00:23:00.347Z,10.10
2017-05-09T00:25:28.627Z,10.20
2017-05-09T00:27:56.296Z,10.20
2017-05-09T00:30:23.552Z,10.20
2017-05-09T00:32:50.328Z,10.10
2017-05-09T00:35:17.452Z,10.20
2017-05-09T00:37:44.214Z,10.30
2017-05-09T00:40:11.056Z,10.30
2017-05-09T00:42:37.832Z,10.10
2017-05-09T00:45:05.066Z,10.10
2017-05-09T00:47:32.300Z,9.90
2017-05-09T00:49:59.082Z,9.90
2017-05-09T00:52:25.802Z,9.90
2017-05-09T00:54:52.539Z,9.90
2017-05-09T00:57:19.262Z,9.90
2017-05-09T00:59:45.647Z,9.90
2017-05-09T01:02:12.444Z,9.80
2017-05-09T01:04:39.524Z,10.00
2017-05-09T01:07:06.363Z,9.80
2017-05-09T01:09:33.184Z,9.70
2017-05-09T01:11:59.581Z,9.70
2017-05-09T01:14:26.315Z,9.60
2017-05-09T01:16:53.430Z,9.50
2017-05-09T01:19:20.551Z,9.60
2017-05-09T01:21:48.992Z,9.70
2017-05-09T01:24:16.045Z,9.70
2017-05-09T01:26:42.468Z,9.70
2017-05-09T01:29:09.623Z,9.70
2017-05-09T01:31:36.488Z,9.70
2017-05-09T01:34:03.252Z,9.60
2017-05-09T01:36:30.352Z,9.60
2017-05-09T01:38:57.143Z,9.60
2017-05-09T01:41:23.974Z,9.40
2017-05-09T01:43:50.383Z,9.50
2017-05-09T01:46:17.161Z,9.20
2017-05-09T01:48:43.928Z,9.30
2017-05-09T01:51:11.303Z,9.30
2017-05-09T01:53:38.144Z,9.20
2017-05-09T01:56:05.309Z,9.00
2017-05-09T01:58:33.113Z,8.70
2017-05-09T02:00:59.544Z,8.70
2017-05-09T02:03:26.283Z,8.80
2017-05-09T02:05:53.378Z,8.90
2017-05-09T02:08:20.850Z,9.20
2017-05-09T02:10:48.171Z,9.10
2017-05-09T02:13:15.267Z,9.10
2017-05-09T02:15:41.761Z,9.10
2017-05-09T02:18:08.143Z,9.00
2017-05-09T02:20:34.943Z,9.00
2017-05-09T02:23:02.442Z,9.10
2017-05-09T02:25:29.277Z,9.10
2017-05-09T02:27:55.664Z,9.10
2017-05-09T02:30:22.494Z,9.10
2017-05-09T02:32:49.257Z,9.00
2017-05-09T02:35:16.035Z,9.00
2017-05-09T02:37:42.765Z,9.00
2017-05-09T02:40:09.220Z,9.00
2017-05-09T02:42:35.916Z,8.90
2017-05-09T02:45:03.331Z,8.90
2017-05-09T02:47:30.899Z,9.00
2017-05-09T02:49:57.272Z,9.00
2017-05-09T02:52:24.432Z,9.00
2017-05-09T02:54:51.186Z,8.90
2017-05-09T02:57:17.986Z,8.90
2017-05-09T02:59:44.724Z,8.80
2017-05-09T03:02:13.160Z,8.90
2017-05-09T03:04:40.924Z,9.00
2017-05-09T03:07:07.725Z,9.00
2017-05-09T03:09:34.557Z,9.00
2017-05-09T03:12:01.832Z,9.10
2017-05-09T03:14:28.585Z,9.10
2017-05-09T03:16:55.594Z,9.00
2017-05-09T03:19:22.351Z,9.20
2017-05-09T03:21:49.168Z,9.20
2017-05-09T03:24:15.973Z,9.40
2017-05-09T03:26:42.646Z,9.40
2017-05-09T03:29:09.712Z,9.50
2017-05-09T03:31:36.622Z,9.50
2017-05-09T03:34:03.672Z,9.60
2017-05-09T03:36:30.463Z,9.70
2017-05-09T03:38:57.102Z,9.70
2017-05-09T03:41:24.264Z,9.80
2017-05-09T03:43:50.931Z,9.80
2017-05-09T03:46:17.745Z,9.80
2017-05-09T03:48:44.184Z,9.80
2017-05-09T03:51:11.317Z,9.50
2017-05-09T03:53:38.402Z,9.50
2017-05-09T03:56:04.813Z,9.50
2017-05-09T03:58:31.199Z,9.50
2017-05-09T04:00:57.972Z,9.50
2017-05-09T04:03:24.750Z,9.40
2017-05-09T04:05:51.164Z,9.40
2017-05-09T04:08:18.217Z,9.40
2017-05-09T04:10:45.007Z,9.40
2017-05-09T04:13:11.841Z,9.30
2017-05-09T04:15:39.275Z,9.30
2017-05-09T04:18:06.371Z,9.20
2017-05-09T04:20:33.168Z,9.20
2017-05-09T04:23:00.354Z,9.20
2017-05-09T04:25:27.524Z,9.30
2017-05-09T04:27:54.269Z,9.20
2017-05-09T04:30:21.073Z,9.20
2017-05-09T04:32:47.832Z,9.20
2017-05-09T04:35:15.016Z,9.30
2017-05-09T04:37:41.397Z,9.20
2017-05-09T04:40:08.508Z,9.20
2017-05-09T04:42:35.301Z,9.20
2017-05-09T04:45:02.162Z,9.10
2017-05-09T04:47:28.864Z,9.10
2017-05-09T04:49:55.918Z,9.20
2017-05-09T04:52:22.717Z,9.30
2017-05-09T04:54:49.516Z,9.40
2017-05-09T04:57:17.476Z,9.40
2017-05-09T04:59:43.864Z,9.40
2017-05-09T05:02:11.449Z,9.80
2017-05-09T05:04:37.815Z,9.80
2017-05-09T05:07:04.642Z,9.70
2017-05-09T05:09:31.713Z,9.80
2017-05-09T05:11:58.871Z,9.80
2017-05-09T05:14:25.877Z,9.70
2017-05-09T05:16:53.219Z,9.70
2017-05-09T05:19:20.804Z,9.70
2017-05-09T05:21:47.620Z,9.80
2017-05-09T05:24:15.531Z,9.80
2017-05-09T05:26:43.343Z,9.80
2017-05-09T05:29:10.082Z,9.80
2017-05-09T05:31:37.028Z,10.00
2017-05-09T05:34:03.400Z,10.00
2017-05-09T05:36:30.538Z,10.20
2017-05-09T05:38:58.319Z,10.30
2017-05-09T05:41:25.969Z,10.20
2017-05-09T05:43:53.080Z,10.40
2017-05-09T05:46:20.591Z,10.70
2017-05-09T05:48:47.633Z,10.90
2017-05-09T05:51:14.698Z,10.90
2017-05-09T05:53:41.959Z,10.60
2017-05-09T05:56:09.668Z,10.80
2017-05-09T05:58:43.413Z,11.00
2017-05-09T06:01:09.891Z,11.00
2017-05-09T06:03:36.639Z,11.30
2017-05-09T06:06:04.866Z,11.20
2017-05-09T06:08:31.595Z,11.20
2017-05-09T06:11:03.397Z,11.10
2017-05-09T06:16:22.190Z,11.20
2017-05-09T06:18:50.020Z,11.40
2017-05-09T06:21:16.780Z,11.40
2017-05-09T06:23:43.769Z,11.60
2017-05-09T06:26:10.903Z,11.50
2017-05-09T06:28:37.702Z,11.60
2017-05-09T06:31:08.737Z,11.60
2017-05-09T06:33:36.964Z,11.50
2017-05-09T06:36:04.547Z,11.50
2017-05-09T06:38:32.183Z,11.40
2017-05-09T06:40:59.347Z,11.20
2017-05-09T06:43:27.421Z,11.20
2017-05-09T06:45:54.563Z,11.50
2017-05-09T06:51:14.307Z,11.80
2017-05-09T06:53:41.529Z,11.70
2017-05-09T06:56:09.260Z,11.70
2017-05-09T06:58:36.021Z,12.10
2017-05-09T07:01:03.802Z,12.20
2017-05-09T07:03:30.209Z,12.30
2017-05-09T07:05:57.595Z,12.10
2017-05-09T07:08:24.344Z,12.40
2017-05-09T07:10:52.984Z,12.60
2017-05-09T07:29:26.685Z,12.90
2017-05-09T07:37:44.565Z,12.50
2017-05-09T07:40:25.149Z,12.50
2017-05-09T07:43:13.988Z,13.00
2017-05-09T07:50:58.980Z,13.50
2017-05-09T07:53:35.523Z,13.60
2017-05-09T07:59:13.895Z,13.70
2017-05-09T08:01:43.685Z,13.40
2017-05-09T08:04:14.751Z,13.40
2017-05-09T08:06:46.610Z,13.20
2017-05-09T08:14:52.805Z,13.60
2017-05-09T08:17:19.614Z,13.70
2017-05-09T08:19:46.403Z,13.40
2017-05-09T08:22:13.418Z,13.50
2017-05-09T08:24:44.075Z,13.70
2017-05-09T08:27:15.260Z,13.70
2017-05-09T08:32:14.363Z,13.70
2017-05-09T08:34:42.334Z,13.80
2017-05-09T08:37:11.607Z,13.60
2017-05-09T08:42:16.077Z,13.70
2017-05-09T08:44:46.543Z,13.80
2017-05-09T08:47:18.942Z,13.80
2017-05-09T08:52:17.990Z,13.90
2017-05-09T08:54:44.757Z,13.90
2017-05-09T08:57:11.752Z,14.20
2017-05-09T08:59:39.560Z,14.20
2017-05-09T09:02:06.329Z,14.40
2017-05-09T09:07:05.309Z,14.60
2017-05-09T09:09:33.373Z,14.50
2017-05-09T09:11:59.830Z,14.50
2017-05-09T09:14:31.639Z,14.20
2017-05-09T09:16:58.619Z,14.10
2017-05-09T09:19:25.433Z,14.20
2017-05-09T09:21:52.396Z,14.20
2017-05-09T09:24:19.040Z,14.30
2017-05-09T09:26:47.201Z,14.40
2017-05-09T09:29:14.360Z,14.40
2017-05-09T09:31:41.173Z,14.70
2017-05-09T09:34:10.030Z,15.10
2017-05-09T09:36:37.952Z,15.30
2017-05-09T09:39:05.792Z,15.20
2017-05-09T09:44:07.278Z,15.10
2017-05-09T09:46:34.649Z,15.10
2017-05-09T09:49:05.282Z,15.10
2017-05-09T09:51:32.418Z,14.70
2017-05-09T09:53:59.277Z,14.70
2017-05-09T09:56:28.384Z,14.60
2017-05-09T09:58:55.523Z,14.60
2017-05-09T10:01:23.014Z,14.60
2017-05-09T10:03:49.768Z,14.70
2017-05-09T10:06:17.429Z,14.80
2017-05-09T10:08:44.562Z,14.70
2017-05-09T10:11:11.862Z,14.70
2017-05-09T10:13:40.816Z,14.80
2017-05-09T10:16:09.456Z,14.50
2017-05-09T10:23:48.526Z,14.40
2017-05-09T10:26:16.235Z,14.60
2017-05-09T10:28:42.996Z,14.80
2017-05-09T10:31:10.750Z,15.00
2017-05-09T10:33:37.558Z,15.10
2017-05-09T10:36:05.056Z,15.00
2017-05-09T10:38:31.941Z,14.90
2017-05-09T10:40:58.733Z,14.90
2017-05-09T10:43:26.144Z,15.10
2017-05-09T10:45:53.810Z,15.10
2017-05-09T10:48:21.108Z,15.10
2017-05-09T10:50:48.604Z,15.20
2017-05-09T10:53:16.588Z,15.30
2017-05-09T10:55:44.924Z,15.70
2017-05-09T10:58:13.288Z,15.80
2017-05-09T11:03:14.273Z,15.80
2017-05-09T11:08:12.721Z,16.10
2017-05-09T11:13:12.133Z,16.70
2017-05-09T11:15:38.607Z,16.80
2017-05-09T11:25:51.534Z,16.90
2017-05-09T11:28:19.629Z,17.00
2017-05-09T11:30:49.672Z,17.00
2017-05-09T11:33:19.426Z,17.00
2017-05-09T11:35:47.253Z,16.90
2017-05-09T11:38:16.304Z,16.90
2017-05-09T11:40:47.091Z,16.80
2017-05-09T11:43:14.154Z,16.40
2017-05-09T11:45:42.304Z,16.30
2017-05-09T11:53:17.690Z,16.10
2017-05-09T11:55:45.662Z,16.20
2017-05-09T11:58:13.289Z,16.30
2017-05-09T12:05:55.288Z,17.00
2017-05-09T12:16:44.935Z,18.80
2017-05-09T12:19:15.767Z,20.90
2017-05-09T12:24:30.156Z,20.80
2017-05-09T12:30:04.051Z,24.50
2017-05-09T12:43:53.833Z,21.00
2017-05-09T13:02:51.101Z,18.00
2017-05-09T13:05:21.398Z,17.50
2017-05-09T13:08:01.883Z,17.50
2017-05-09T13:16:10.811Z,16.20
2017-05-09T13:21:32.719Z,15.90
2017-05-09T13:24:03.964Z,16.00
2017-05-09T13:29:10.436Z,19.10
2017-05-09T13:34:22.775Z,22.00
2017-05-09T13:47:59.614Z,26.70
2017-05-09T13:58:43.125Z,28.80
2017-05-09T14:01:15.974Z,25.10
2017-05-09T14:06:20.104Z,23.30
2017-05-09T14:11:18.810Z,20.80
2017-05-09T14:13:47.458Z,19.10
2017-05-09T14:18:46.404Z,19.30
2017-05-09T14:24:03.551Z,24.80
2017-05-09T14:26:33.057Z,25.60
2017-05-09T14:29:11.861Z,24.90
2017-05-09T14:34:25.685Z,21.90
2017-05-09T14:36:55.151Z,20.70
2017-05-09T14:39:43.679Z,19.70
2017-05-09T14:44:54.462Z,18.80
2017-05-09T14:49:59.473Z,17.40
2017-05-09T15:06:00.074Z,15.40
2017-05-09T15:11:07.275Z,15.30
2017-05-09T15:43:56.969Z,13.90
2017-05-09T15:49:04.347Z,13.90
2017-05-09T15:51:54.439Z,14.00
2017-05-09T15:59:59.895Z,14.00
2017-05-09T16:02:33.314Z,14.00
2017-05-09T16:21:28.156Z,13.80
2017-05-09T16:23:59.893Z,13.60
2017-05-09T16:26:34.447Z,13.60
2017-05-09T16:46:46.974Z,13.90
2017-05-09T16:52:31.260Z,14.00
2017-05-09T17:09:23.219Z,13.60
2017-05-09T17:15:00.654Z,13.60
2017-05-09T17:20:37.290Z,13.70
2017-05-09T17:23:31.158Z,13.70
2017-05-09T17:26:06.600Z,13.70
2017-05-09T17:36:37.524Z,13.30
2017-05-09T17:39:11.429Z,13.20
2017-05-09T17:41:47.337Z,13.10
2017-05-09T17:46:58.247Z,13.00
2017-05-09T17:49:27.431Z,13.00
2017-05-09T17:54:35.619Z,12.90
2017-05-09T17:57:07.231Z,12.80
2017-05-09T18:02:11.640Z,12.80
2017-05-09T18:12:16.354Z,13.00
2017-05-09T18:14:44.291Z,12.90
2017-05-09T18:17:13.838Z,12.90
2017-05-09T18:19:40.645Z,12.80
2017-05-09T18:24:44.705Z,12.80
2017-05-09T18:27:14.120Z,12.80
2017-05-09T18:29:42.873Z,12.80
2017-05-09T18:32:15.140Z,12.80
2017-05-09T18:34:42.874Z,12.80
2017-05-09T18:37:10.560Z,12.80
2017-05-09T18:39:39.025Z,12.90
2017-05-09T18:42:08.732Z,12.90
2017-05-09T18:44:36.213Z,12.70
2017-05-09T18:47:05.238Z,12.60
2017-05-09T18:49:33.205Z,12.50
2017-05-09T18:52:01.665Z,12.60
2017-05-09T18:54:28.187Z,12.60
2017-05-09T18:56:55.889Z,12.40
2017-05-09T18:59:22.714Z,12.40
2017-05-09T19:01:50.363Z,12.30
2017-05-09T19:04:18.179Z,12.30
2017-05-09T19:06:46.736Z,12.20
2017-05-09T19:09:15.205Z,12.20
2017-05-09T19:11:43.224Z,12.10
2017-05-09T19:14:14.512Z,11.80
2017-05-09T19:19:17.941Z,11.80
2017-05-09T19:26:53.151Z,11.60
2017-05-09T19:29:20.728Z,11.40
2017-05-09T19:31:48.411Z,11.40
2017-05-09T19:34:17.308Z,11.40
2017-05-09T19:36:44.621Z,11.30
2017-05-09T19:39:13.189Z,11.30
2017-05-09T19:41:41.980Z,11.20
2017-05-09T19:44:09.187Z,11.20
2017-05-09T19:46:36.503Z,11.10
2017-05-09T19:49:04.367Z,11.10
2017-05-09T19:51:32.214Z,11.00
2017-05-09T19:53:58.848Z,11.00
2017-05-09T19:56:28.311Z,10.80
2017-05-09T19:58:56.481Z,10.70
2017-05-09T20:01:24.790Z,10.60
2017-05-09T20:03:52.161Z,10.60
2017-05-09T20:06:19.277Z,10.50
2017-05-09T20:08:47.238Z,10.40
2017-05-09T20:11:15.326Z,10.40
2017-05-09T20:13:43.125Z,10.40
2017-05-09T20:16:10.132Z,10.30
2017-05-09T20:18:37.317Z,10.20
2017-05-09T20:21:04.444Z,10.10
2017-05-09T20:23:32.425Z,9.90
2017-05-09T20:26:01.828Z,9.80
2017-05-09T20:28:29.099Z,9.80
2017-05-09T20:30:57.008Z,9.70
2017-05-09T20:33:25.095Z,9.60
2017-05-09T20:35:52.203Z,9.50
2017-05-09T20:38:19.561Z,9.60
2017-05-09T20:40:46.358Z,9.60
2017-05-09T20:45:45.732Z,9.10
2017-05-09T20:48:13.906Z,9.20
2017-05-09T20:50:41.117Z,9.40
2017-05-09T20:53:07.915Z,9.40
2017-05-09T20:55:35.277Z,9.40
2017-05-09T20:58:02.319Z,9.50
2017-05-09T21:00:29.475Z,9.50
2017-05-09T21:02:56.660Z,9.30
2017-05-09T21:05:25.113Z,9.30
2017-05-09T21:07:51.857Z,9.00
2017-05-09T21:10:18.662Z,9.00
2017-05-09T21:12:46.268Z,9.10
2017-05-09T21:15:13.080Z,9.10
2017-05-09T21:17:40.520Z,9.00
2017-05-09T21:20:07.413Z,9.10
2017-05-09T21:22:34.263Z,9.20
2017-05-09T21:25:02.207Z,9.20
2017-05-09T21:27:30.651Z,9.00
2017-05-09T21:29:57.693Z,8.70
2017-05-09T21:32:24.846Z,8.60
2017-05-09T21:34:51.957Z,8.80
2017-05-09T21:37:19.083Z,8.90
2017-05-09T21:39:45.558Z,8.90
2017-05-09T21:42:14.241Z,8.90
2017-05-09T21:44:40.627Z,8.90
2017-05-09T21:47:09.362Z,8.90
2017-05-09T21:49:36.996Z,9.00
2017-05-09T21:52:05.070Z,9.00
2017-05-09T21:54:31.473Z,8.90
2017-05-09T21:56:58.774Z,8.80
2017-05-09T21:59:25.835Z,8.80
2017-05-09T22:01:53.298Z,8.80
2017-05-09T22:04:23.932Z,8.80
2017-05-09T22:06:50.397Z,8.80
2017-05-09T22:09:18.729Z,8.90
2017-05-09T22:11:46.907Z,8.80
2017-05-09T22:14:13.806Z,8.60
2017-05-09T22:16:41.615Z,8.60
2017-05-09T22:19:09.187Z,8.80
2017-05-09T22:21:36.003Z,8.80
2017-05-09T22:24:06.045Z,8.80
2017-05-09T22:26:32.549Z,8.80
2017-05-09T22:28:59.656Z,9.10
2017-05-09T22:31:27.221Z,9.10
2017-05-09T22:33:53.696Z,9.10
2017-05-09T22:36:21.555Z,9.10
2017-05-09T22:38:49.496Z,9.10
2017-05-09T22:41:16.912Z,9.10
2017-05-09T22:43:47.721Z,9.00
2017-05-09T22:46:14.587Z,9.00
2017-05-09T22:48:41.336Z,9.10
2017-05-09T22:51:08.848Z,9.10
2017-05-09T22:53:36.441Z,9.20
2017-05-09T22:56:03.743Z,9.10
2017-05-09T22:58:30.603Z,9.00
2017-05-09T23:00:57.576Z,9.00
2017-05-09T23:03:25.683Z,9.00
2017-05-09T23:05:53.661Z,8.70
2017-05-09T23:08:20.943Z,8.60
2017-05-09T23:10:47.627Z,8.60
2017-05-09T23:18:23.519Z,8.60
2017-05-09T23:20:50.263Z,8.50
2017-05-09T23:23:16.952Z,8.60
2017-05-09T23:25:43.820Z,8.40
2017-05-09T23:28:11.593Z,8.40
2017-05-09T23:30:39.099Z,8.40
2017-05-09T23:33:06.864Z,8.40
2017-05-09T23:35:34.639Z,8.40
2017-05-09T23:38:01.694Z,8.40
2017-05-09T23:40:28.768Z,8.30
2017-05-09T23:42:55.849Z,8.30
2017-05-09T23:45:24.969Z,8.30
2017-05-09T23:47:52.107Z,8.20
2017-05-09T23:50:19.324Z,8.20
2017-05-09T23:52:47.092Z,8.20
2017-05-09T23:55:13.619Z,8.10
2017-05-09T23:57:40.383Z,8.10
